Time;durP1;ratioP1;P1;durP2;ratioP2;P2;SDS_P1;SDS_P2;PMS_P1;PMS_P2;Temp;Humidity;BMP_temperature;BMP_pressure;BME280_temperature;BME280_humidity;BME280_pressure;Samples;Min_cycle;Max_cycle;Signal;HPM_P1;HPM_P2
2022/11/20 00:00:57;;;;;;;4.20;2.28;;;5.60;99.90;;;;;;5023284;28;20045;-76
2022/11/20 00:03:23;;;;;;;5.32;3.08;;;5.60;99.90;;;;;;5060810;28;20053;-76
2022/11/20 00:05:50;;;;;;;3.65;2.60;;;5.60;99.90;;;;;;5024672;28;20501;-76
2022/11/20 00:08:17;;;;;;;6.78;3.50;;;5.60;99.90;;;;;;5041384;28;20372;-76
2022/11/20 00:10:43;;;;;;;6.72;3.72;;;5.60;99.90;;;;;;5038938;28;20056;-76
2022/11/20 00:13:10;;;;;;;5.72;4.28;;;5.60;99.90;;;;;;5059849;28;20257;-77
2022/11/20 00:15:37;;;;;;;7.57;4.72;;;5.60;99.90;;;;;;5042347;28;20123;-76
2022/11/20 00:18:04;;;;;;;9.50;4.47;;;5.60;99.90;;;;;;5058558;28;20044;-77
2022/11/20 00:20:31;;;;;;;6.88;4.63;;;5.70;99.90;;;;;;5041392;28;20054;-77
2022/11/20 00:22:58;;;;;;;8.88;4.82;;;5.60;99.90;;;;;;5043218;28;20064;-77
2022/11/20 00:25:25;;;;;;;7.85;4.82;;;5.60;99.90;;;;;;5058340;28;20048;-76
2022/11/20 00:27:51;;;;;;;8.27;4.55;;;5.60;99.90;;;;;;5043151;28;20056;-77
2022/11/20 00:30:18;;;;;;;8.00;4.88;;;5.70;99.90;;;;;;5060067;28;20067;-76
2022/11/20 00:32:45;;;;;;;7.93;4.70;;;5.70;99.90;;;;;;5039917;28;20532;-76
2022/11/20 00:35:12;;;;;;;7.95;4.68;;;5.80;99.90;;;;;;5060546;28;20041;-77
2022/11/20 00:37:38;;;;;;;8.40;4.32;;;5.80;99.90;;;;;;5060825;28;20056;-77
2022/11/20 00:40:06;;;;;;;8.02;4.90;;;5.80;99.90;;;;;;5060170;28;20055;-77
2022/11/20 00:42:33;;;;;;;7.05;4.30;;;5.80;99.90;;;;;;5039102;28;20258;-77
2022/11/20 00:45:00;;;;;;;8.18;4.57;;;5.80;99.90;;;;;;5041475;28;20052;-76
2022/11/20 00:47:27;;;;;;;8.40;4.07;;;5.80;99.90;;;;;;5054208;28;20132;-76
2022/11/20 00:49:54;;;;;;;7.85;4.05;;;5.80;99.90;;;;;;5048353;28;20048;-75
2022/11/20 00:52:20;;;;;;;7.57;4.43;;;5.90;99.90;;;;;;5039012;28;20080;-77
2022/11/20 00:54:47;;;;;;;8.52;4.55;;;5.90;99.90;;;;;;5056944;28;20044;-75
2022/11/20 00:57:14;;;;;;;7.55;4.45;;;6.00;99.90;;;;;;5042757;28;20492;-76
2022/11/20 00:59:41;;;;;;;7.78;4.75;;;6.00;99.90;;;;;;5060274;28;20052;-78
2022/11/20 01:02:08;;;;;;;8.05;4.82;;;6.00;99.90;;;;;;5059757;28;20040;-75
2022/11/20 01:04:35;;;;;;;7.50;4.40;;;6.00;99.90;;;;;;5022478;28;20441;-75
2022/11/20 01:07:01;;;;;;;6.07;3.55;;;6.00;99.90;;;;;;5026163;28;20489;-75
2022/11/20 01:09:28;;;;;;;6.53;3.70;;;6.00;99.90;;;;;;5021769;28;20048;-75
2022/11/20 01:11:56;;;;;;;6.32;3.80;;;6.00;99.90;;;;;;5039493;28;20423;-75
2022/11/20 01:14:22;;;;;;;7.30;4.43;;;6.10;99.90;;;;;;5013642;28;20048;-75
2022/11/20 01:16:50;;;;;;;6.18;3.65;;;6.10;99.90;;;;;;5045663;28;20530;-75
2022/11/20 01:19:19;;;;;;;5.75;3.08;;;6.10;99.90;;;;;;5044807;28;20059;-76
2022/11/20 01:21:49;;;;;;;5.22;3.42;;;6.10;99.90;;;;;;5048355;28;20269;-76
2022/11/20 01:24:16;;;;;;;5.10;3.10;;;6.10;99.90;;;;;;5032801;28;20150;-76
2022/11/20 01:26:44;;;;;;;7.15;3.35;;;6.20;99.90;;;;;;5031486;28;20044;-77
2022/11/20 01:29:13;;;;;;;4.72;3.08;;;6.20;99.90;;;;;;5033244;28;20048;-75
2022/11/20 01:31:40;;;;;;;5.05;3.10;;;6.20;99.90;;;;;;5031236;28;20044;-76
2022/11/20 01:34:10;;;;;;;5.78;3.05;;;6.30;99.90;;;;;;5040165;28;20361;-77
2022/11/20 01:36:37;;;;;;;3.90;2.60;;;6.30;99.90;;;;;;5027249;28;20139;-75
2022/11/20 01:39:06;;;;;;;4.55;2.63;;;6.30;99.90;;;;;;5032600;28;20055;-75
2022/11/20 01:44:21;;;;;;;4.65;3.53;;;6.40;99.90;;;;;;5050619;28;20167;-76
2022/11/20 01:47:00;;;;;;;4.65;2.50;;;6.40;99.90;;;;;;5012788;28;20045;-75
2022/11/20 01:49:39;;;;;;;2.92;1.60;;;6.40;99.90;;;;;;5013459;28;20045;-76
2022/11/20 01:52:24;;;;;;;2.63;1.60;;;6.40;99.90;;;;;;5024038;28;20419;-76
2022/11/20 01:55:04;;;;;;;2.97;1.60;;;6.40;99.90;;;;;;5031076;28;20203;-76
2022/11/20 01:57:31;;;;;;;2.38;1.42;;;6.50;99.90;;;;;;5047995;28;20052;-76
2022/11/20 02:00:04;;;;;;;3.25;1.60;;;6.50;99.90;;;;;;5048162;28;20476;-76
2022/11/20 02:02:31;;;;;;;2.08;1.35;;;6.50;99.90;;;;;;5031920;28;20105;-76
2022/11/20 02:05:01;;;;;;;2.00;1.17;;;6.50;99.90;;;;;;5046312;28;20452;-76
2022/11/20 02:07:27;;;;;;;0.95;0.82;;;6.50;99.90;;;;;;5032387;28;20522;-76
2022/11/20 02:09:54;;;;;;;1.90;1.33;;;6.50;99.90;;;;;;5030826;28;20040;-76
2022/11/20 02:15:09;;;;;;;1.33;0.88;;;6.60;99.90;;;;;;5047543;28;20134;-76
2022/11/20 02:17:36;;;;;;;1.10;0.82;;;6.60;99.90;;;;;;5066911;28;20053;-76
2022/11/20 02:20:04;;;;;;;2.60;1.10;;;6.60;99.90;;;;;;5046382;28;20407;-76
2022/11/20 02:22:38;;;;;;;1.83;1.10;;;6.60;99.90;;;;;;5031040;28;20287;-76
2022/11/20 02:25:05;;;;;;;1.65;1.00;;;6.60;99.90;;;;;;5030126;28;20252;-75
2022/11/20 02:27:31;;;;;;;1.15;0.88;;;6.70;99.90;;;;;;5032023;28;20052;-76
2022/11/20 02:30:03;;;;;;;1.80;1.00;;;6.70;99.90;;;;;;5030544;28;20131;-75
2022/11/20 02:32:34;;;;;;;1.98;1.20;;;6.70;99.90;;;;;;5031310;28;20044;-76
2022/11/20 02:35:09;;;;;;;1.65;1.10;;;6.70;99.90;;;;;;5006022;28;20360;-76
2022/11/20 02:37:37;;;;;;;1.00;0.90;;;6.70;99.90;;;;;;5029330;28;20052;-76
2022/11/20 02:40:04;;;;;;;0.98;0.77;;;6.70;99.90;;;;;;5049071;28;20094;-75
2022/11/20 02:42:31;;;;;;;0.90;0.70;;;6.80;99.90;;;;;;5027726;28;20052;-76
2022/11/20 02:44:58;;;;;;;1.17;0.68;;;6.80;99.90;;;;;;5049620;28;20509;-75
2022/11/20 02:47:25;;;;;;;1.13;0.80;;;6.80;99.90;;;;;;5078339;28;20602;-75
2022/11/20 02:49:51;;;;;;;1.02;0.60;;;6.80;99.90;;;;;;5053142;28;20063;-76
2022/11/20 02:52:18;;;;;;;1.52;0.88;;;6.80;99.90;;;;;;5046895;28;20077;-75
2022/11/20 02:54:45;;;;;;;1.70;0.60;;;6.80;99.90;;;;;;5029344;28;20048;-76
2022/11/20 02:57:12;;;;;;;0.73;0.50;;;6.90;99.90;;;;;;5031499;28;20492;-76
2022/11/20 02:59:38;;;;;;;1.25;0.63;;;6.90;99.90;;;;;;5027418;28;20060;-75
2022/11/20 03:02:05;;;;;;;1.25;0.80;;;6.90;99.90;;;;;;5030198;28;20060;-75
2022/11/20 03:04:32;;;;;;;1.20;0.82;;;6.90;99.90;;;;;;5045873;28;20059;-75
2022/11/20 03:06:59;;;;;;;1.02;0.70;;;6.90;99.90;;;;;;5047083;28;20052;-76
2022/11/20 03:09:26;;;;;;;0.70;0.70;;;7.00;99.90;;;;;;5024050;28;20055;-76
2022/11/20 03:11:53;;;;;;;0.52;0.50;;;7.00;99.90;;;;;;5046227;28;20656;-75
2022/11/20 03:14:20;;;;;;;0.68;0.52;;;7.00;99.90;;;;;;5041568;28;20373;-75
2022/11/20 03:16:46;;;;;;;0.68;0.65;;;7.10;99.90;;;;;;5031275;28;20059;-75
2022/11/20 03:19:13;;;;;;;0.47;0.40;;;7.10;99.90;;;;;;5064648;28;20053;-76
2022/11/20 03:21:40;;;;;;;0.98;0.50;;;7.10;99.90;;;;;;5047313;28;20063;-75
2022/11/20 03:24:07;;;;;;;0.52;0.40;;;7.10;99.90;;;;;;5026814;28;20520;-75
2022/11/20 03:26:34;;;;;;;1.65;0.60;;;7.10;99.90;;;;;;5010861;28;20228;-76
2022/11/20 03:29:03;;;;;;;0.47;0.40;;;7.10;99.90;;;;;;5045344;28;20436;-76
2022/11/20 03:31:37;;;;;;;1.00;0.40;;;7.10;99.90;;;;;;5013754;28;20140;-76
2022/11/20 03:34:04;;;;;;;0.38;0.38;;;7.10;99.90;;;;;;5031369;28;20131;-76
2022/11/20 03:36:31;;;;;;;0.75;0.40;;;7.20;99.90;;;;;;5029477;28;20054;-75
2022/11/20 03:38:57;;;;;;;0.40;0.40;;;7.20;99.90;;;;;;5046436;28;20051;-76
2022/11/20 03:41:26;;;;;;;0.47;0.38;;;7.20;99.90;;;;;;5047470;28;20052;-75
2022/11/20 03:43:58;;;;;;;0.35;0.35;;;7.20;99.90;;;;;;5028786;28;20423;-76
2022/11/20 03:46:24;;;;;;;0.40;0.40;;;7.20;99.90;;;;;;5031480;28;20052;-76
2022/11/20 03:48:51;;;;;;;0.40;0.40;;;7.30;99.90;;;;;;5046307;28;20060;-76
2022/11/20 03:51:20;;;;;;;0.55;0.45;;;7.30;99.90;;;;;;5030213;28;20140;-75
2022/11/20 03:53:48;;;;;;;0.57;0.47;;;7.30;99.90;;;;;;5044898;28;20097;-75
2022/11/20 03:56:16;;;;;;;0.38;0.32;;;7.30;99.90;;;;;;5029983;28;20052;-76
2022/11/20 03:58:43;;;;;;;1.10;0.45;;;7.30;99.90;;;;;;5045658;28;20163;-76
2022/11/20 04:01:15;;;;;;;0.63;0.40;;;7.30;99.90;;;;;;5031059;28;20054;-76
2022/11/20 04:03:42;;;;;;;0.50;0.50;;;7.40;99.90;;;;;;5044959;28;20076;-76
2022/11/20 04:06:16;;;;;;;0.30;0.30;;;7.40;99.90;;;;;;5027816;28;20055;-76
2022/11/20 04:08:43;;;;;;;0.55;0.32;;;7.40;99.90;;;;;;5027681;28;20135;-76
2022/11/20 04:11:26;;;;;;;1.10;0.45;;;7.40;99.90;;;;;;5047757;28;20056;-77
2022/11/20 04:14:00;;;;;;;0.47;0.40;;;7.50;99.90;;;;;;5044129;28;20119;-76
2022/11/20 04:16:29;;;;;;;0.82;0.60;;;7.50;99.90;;;;;;5047423;28;20124;-76
2022/11/20 04:18:57;;;;;;;0.40;0.35;;;7.50;99.90;;;;;;5045401;28;20102;-76
2022/11/20 04:21:24;;;;;;;0.47;0.35;;;7.50;99.90;;;;;;5029869;28;20044;-75
2022/11/20 04:23:52;;;;;;;0.70;0.57;;;7.60;99.90;;;;;;5013235;28;20126;-75
2022/11/20 04:26:19;;;;;;;0.40;0.40;;;7.60;99.90;;;;;;5047297;28;20099;-76
2022/11/20 04:28:46;;;;;;;0.55;0.50;;;7.60;99.90;;;;;;5046498;28;20136;-76
2022/11/20 04:31:17;;;;;;;0.60;0.45;;;7.60;99.90;;;;;;5029027;28;20071;-76
2022/11/20 04:33:44;;;;;;;1.08;0.50;;;7.60;99.90;;;;;;5029129;28;20045;-78
2022/11/20 04:36:22;;;;;;;0.65;0.60;;;7.60;99.90;;;;;;5029855;28;20083;-75
2022/11/20 04:38:53;;;;;;;1.17;0.60;;;7.60;99.90;;;;;;5030016;28;20412;-75
2022/11/20 04:41:23;;;;;;;;;;;7.60;99.90;;;;;;5038549;28;20112;-76
2022/11/20 04:43:51;;;;;;;0.40;0.40;;;7.60;99.90;;;;;;5046583;28;19921;-75
2022/11/20 04:46:18;;;;;;;0.63;0.60;;;7.60;99.90;;;;;;5032466;28;20066;-76
2022/11/20 04:48:45;;;;;;;0.50;0.40;;;7.60;99.90;;;;;;5033377;28;20051;-76
2022/11/20 04:51:12;;;;;;;0.60;0.45;;;7.60;99.90;;;;;;5048984;28;20056;-76
2022/11/20 04:53:39;;;;;;;0.40;0.40;;;7.60;99.90;;;;;;5049933;28;20037;-76
2022/11/20 04:56:06;;;;;;;0.70;0.70;;;7.70;99.90;;;;;;5034121;28;20044;-75
2022/11/20 04:58:33;;;;;;;0.73;0.70;;;7.70;99.90;;;;;;5045696;28;20044;-76
2022/11/20 05:01:14;;;;;;;0.82;0.60;;;7.70;99.90;;;;;;5030861;28;20077;-75
2022/11/20 05:03:41;;;;;;;0.85;0.57;;;7.70;99.90;;;;;;5033505;28;20056;-76
2022/11/20 05:06:09;;;;;;;0.63;0.50;;;7.70;99.90;;;;;;5050169;28;20064;-77
2022/11/20 05:08:36;;;;;;;0.77;0.70;;;7.70;99.90;;;;;;5032939;28;20451;-76
2022/11/20 05:11:04;;;;;;;1.45;0.85;;;7.70;99.90;;;;;;5054635;28;20048;-78
2022/11/20 05:13:31;;;;;;;0.40;0.40;;;7.70;99.90;;;;;;5013915;28;20075;-76
2022/11/20 05:16:05;;;;;;;0.60;0.35;;;7.70;99.90;;;;;;5050105;28;20055;-76
2022/11/20 05:18:33;;;;;;;0.80;0.50;;;7.80;99.90;;;;;;5032417;28;20106;-76
2022/11/20 05:21:00;;;;;;;0.70;0.60;;;7.80;99.90;;;;;;5067680;28;20063;-76
2022/11/20 05:23:27;;;;;;;0.40;0.40;;;7.80;99.90;;;;;;5028398;28;20049;-76
2022/11/20 05:25:55;;;;;;;0.38;0.38;;;7.80;99.90;;;;;;5045545;28;20087;-76
2022/11/20 05:28:25;;;;;;;0.30;0.30;;;7.80;99.90;;;;;;5050348;28;20076;-76
2022/11/20 05:30:52;;;;;;;0.60;0.60;;;7.80;99.90;;;;;;5050152;28;20076;-76
2022/11/20 05:33:19;;;;;;;0.50;0.50;;;7.80;99.90;;;;;;5030649;28;20643;-76
2022/11/20 05:35:46;;;;;;;0.60;0.50;;;7.80;99.90;;;;;;5012927;28;20052;-76
2022/11/20 05:38:12;;;;;;;0.57;0.57;;;7.90;99.90;;;;;;5013954;28;20612;-76
2022/11/20 05:40:39;;;;;;;0.63;0.60;;;7.80;99.90;;;;;;5029508;28;20141;-76
2022/11/20 05:43:06;;;;;;;1.52;0.65;;;7.80;99.90;;;;;;5030127;28;20079;-76
2022/11/20 05:45:32;;;;;;;1.23;0.73;;;7.80;99.90;;;;;;5033466;28;20135;-77
2022/11/20 05:48:02;;;;;;;0.98;0.60;;;7.80;99.90;;;;;;5029140;28;20882;-77
2022/11/20 05:50:29;;;;;;;0.70;0.60;;;7.80;99.90;;;;;;4995616;28;20049;-77
2022/11/20 05:53:00;;;;;;;1.05;0.40;;;7.80;99.90;;;;;;5040140;28;20052;-77
2022/11/20 05:55:27;;;;;;;0.93;0.50;;;7.80;99.90;;;;;;5047120;28;20142;-77
2022/11/20 05:57:54;;;;;;;0.57;0.55;;;7.80;99.90;;;;;;5044475;28;20696;-76
2022/11/20 06:00:21;;;;;;;0.88;0.70;;;7.80;99.90;;;;;;5030028;28;20122;-77
2022/11/20 06:02:48;;;;;;;0.40;0.40;;;7.80;99.90;;;;;;5008635;28;20048;-77
2022/11/20 06:05:15;;;;;;;0.30;0.30;;;7.80;99.90;;;;;;5011699;28;20633;-77
2022/11/20 06:07:42;;;;;;;0.40;0.40;;;7.80;99.90;;;;;;5028287;28;20499;-77
2022/11/20 06:10:09;;;;;;;0.68;0.50;;;7.90;99.90;;;;;;5029209;28;20068;-77
2022/11/20 06:12:35;;;;;;;0.40;0.40;;;7.90;99.90;;;;;;5009450;28;20056;-77
2022/11/20 06:15:03;;;;;;;0.30;0.30;;;7.90;99.90;;;;;;5027605;28;20119;-76
2022/11/20 06:17:30;;;;;;;0.85;0.40;;;7.90;99.90;;;;;;5045341;28;20417;-76
2022/11/20 06:19:57;;;;;;;1.10;0.70;;;7.90;99.90;;;;;;5048803;28;20076;-77
2022/11/20 06:22:24;;;;;;;0.85;0.63;;;7.90;99.90;;;;;;5013091;28;20053;-76
2022/11/20 06:24:50;;;;;;;0.50;0.50;;;8.00;99.90;;;;;;5045056;28;20044;-76
2022/11/20 06:27:17;;;;;;;1.52;0.70;;;8.00;99.90;;;;;;5027331;28;20511;-76
2022/11/20 06:29:44;;;;;;;0.70;0.50;;;8.00;99.90;;;;;;5017542;28;20068;-77
2022/11/20 06:32:11;;;;;;;1.10;0.60;;;8.00;99.90;;;;;;5009513;28;20058;-76
2022/11/20 06:34:37;;;;;;;0.85;0.60;;;8.00;99.90;;;;;;5012177;28;20052;-76
2022/11/20 06:37:04;;;;;;;0.50;0.40;;;8.00;99.90;;;;;;5043868;28;20502;-77
2022/11/20 06:39:31;;;;;;;1.05;0.60;;;8.00;99.90;;;;;;5028625;28;20105;-75
2022/11/20 06:41:58;;;;;;;0.50;0.50;;;8.00;99.90;;;;;;5043193;28;20054;-76
2022/11/20 06:44:25;;;;;;;0.50;0.50;;;8.00;99.90;;;;;;4992877;28;20503;-76
2022/11/20 06:46:52;;;;;;;0.70;0.70;;;8.00;99.90;;;;;;5008042;28;20070;-76
2022/11/20 06:49:19;;;;;;;0.50;0.50;;;8.10;99.90;;;;;;5037253;28;20051;-76
2022/11/20 06:51:46;;;;;;;1.85;0.85;;;8.10;99.90;;;;;;5028533;28;20410;-77
2022/11/20 06:54:13;;;;;;;0.75;0.60;;;8.10;99.90;;;;;;5043369;28;20040;-76
2022/11/20 06:56:40;;;;;;;1.23;0.73;;;8.10;99.90;;;;;;5044035;28;20052;-76
2022/11/20 06:59:07;;;;;;;0.85;0.40;;;8.20;99.90;;;;;;5028412;28;20148;-76
2022/11/20 07:01:34;;;;;;;0.60;0.60;;;8.20;99.90;;;;;;5027652;28;20557;-76
2022/11/20 07:04:02;;;;;;;0.65;0.60;;;8.20;99.90;;;;;;5025090;28;20060;-76
2022/11/20 07:06:29;;;;;;;0.50;0.50;;;8.30;99.90;;;;;;5026111;28;20074;-77
2022/11/20 07:08:56;;;;;;;0.93;0.70;;;8.30;99.90;;;;;;5043365;28;20046;-78
2022/11/20 07:11:23;;;;;;;0.40;0.40;;;8.30;99.90;;;;;;5042612;28;20490;-76
2022/11/20 07:13:50;;;;;;;0.57;0.52;;;8.40;99.90;;;;;;5024835;28;20128;-77
2022/11/20 07:16:17;;;;;;;0.50;0.50;;;8.30;99.90;;;;;;5026417;28;20056;-77
2022/11/20 07:18:44;;;;;;;0.50;0.50;;;8.40;99.90;;;;;;5039448;28;20060;-76
2022/11/20 07:21:16;;;;;;;0.57;0.50;;;8.40;99.90;;;;;;5044194;28;20072;-77
2022/11/20 07:23:43;;;;;;;0.40;0.40;;;8.40;99.90;;;;;;5027049;28;20814;-77
2022/11/20 07:26:10;;;;;;;0.60;0.50;;;8.50;99.90;;;;;;5023444;28;20055;-77
2022/11/20 07:28:37;;;;;;;0.30;0.30;;;8.50;99.90;;;;;;5025642;28;20068;-76
2022/11/20 07:31:04;;;;;;;0.50;0.50;;;8.60;99.90;;;;;;5043888;28;20539;-77
2022/11/20 07:33:32;;;;;;;0.60;0.40;;;8.70;99.90;;;;;;5041308;28;20407;-77
2022/11/20 07:35:59;;;;;;;0.45;0.40;;;8.70;99.90;;;;;;5042542;28;20058;-77
2022/11/20 07:38:26;;;;;;;0.80;0.47;;;8.80;99.90;;;;;;5028391;28;20139;-77
2022/11/20 07:40:55;;;;;;;0.52;0.52;;;8.80;99.90;;;;;;5027800;28;20083;-76
2022/11/20 07:43:22;;;;;;;0.50;0.50;;;8.90;99.90;;;;;;5043660;28;20328;-77
2022/11/20 07:45:49;;;;;;;1.50;0.80;;;8.90;99.90;;;;;;5026307;28;20128;-74
2022/11/20 07:48:15;;;;;;;1.10;0.65;;;8.90;99.90;;;;;;5039111;28;20056;-74
2022/11/20 07:50:42;;;;;;;1.13;0.80;;;8.80;99.90;;;;;;5020913;28;20052;-75
2022/11/20 07:53:09;;;;;;;1.02;0.95;;;8.60;99.90;;;;;;5036036;28;20131;-75
2022/11/20 07:55:36;;;;;;;1.13;0.77;;;8.50;99.90;;;;;;5027857;28;20471;-76
2022/11/20 07:58:03;;;;;;;0.70;0.70;;;8.50;99.90;;;;;;5029545;28;20045;-76
2022/11/20 08:00:31;;;;;;;0.52;0.52;;;8.50;99.90;;;;;;5010468;28;20091;-76
2022/11/20 08:02:57;;;;;;;0.55;0.50;;;8.50;99.90;;;;;;5016910;28;20052;-77
2022/11/20 08:05:24;;;;;;;1.02;0.60;;;8.50;99.90;;;;;;5024912;28;20569;-76
2022/11/20 08:07:51;;;;;;;0.50;0.50;;;8.50;99.90;;;;;;5052866;28;20053;-77
2022/11/20 08:10:18;;;;;;;0.65;0.50;;;8.50;99.90;;;;;;5030564;28;20055;-77
2022/11/20 08:15:34;;;;;;;0.50;0.50;;;8.60;99.90;;;;;;5042722;28;20488;-77
2022/11/20 08:18:05;;;;;;;0.40;0.40;;;8.60;99.90;;;;;;5017308;28;20072;-77
2022/11/20 08:20:52;;;;;;;0.40;0.40;;;8.60;99.90;;;;;;5051000;28;20393;-77
2022/11/20 08:23:18;;;;;;;0.32;0.32;;;8.60;99.90;;;;;;5035431;28;20075;-77
2022/11/20 08:25:49;;;;;;;0.32;0.30;;;8.70;99.90;;;;;;5025987;28;20080;-77
2022/11/20 08:28:15;;;;;;;0.30;0.30;;;8.70;99.90;;;;;;5042641;28;20045;-77
2022/11/20 08:30:47;;;;;;;0.40;0.40;;;8.70;99.90;;;;;;5025114;28;20373;-77
2022/11/20 08:33:14;;;;;;;0.40;0.40;;;8.70;99.90;;;;;;5043475;28;20441;-77
2022/11/20 08:35:42;;;;;;;0.55;0.30;;;8.70;99.90;;;;;;5040955;28;20048;-77
2022/11/20 08:38:09;;;;;;;0.63;0.60;;;8.70;99.90;;;;;;5028328;28;20052;-77
2022/11/20 08:40:36;;;;;;;0.63;0.50;;;8.70;99.90;;;;;;5027765;28;20071;-77
2022/11/20 08:43:03;;;;;;;1.33;0.60;;;8.70;99.90;;;;;;5044183;28;20133;-77
2022/11/20 08:45:30;;;;;;;0.77;0.57;;;8.70;99.90;;;;;;5043620;28;20122;-77
2022/11/20 08:48:01;;;;;;;0.40;0.40;;;8.70;99.90;;;;;;5029769;28;20147;-76
2022/11/20 08:50:30;;;;;;;0.52;0.52;;;8.70;99.90;;;;;;5011057;28;20052;-77
2022/11/20 08:53:04;;;;;;;0.55;0.55;;;8.70;99.90;;;;;;5046472;28;20044;-77
2022/11/20 08:55:31;;;;;;;0.85;0.80;;;8.80;99.90;;;;;;5028025;28;20048;-77
2022/11/20 08:57:58;;;;;;;0.68;0.50;;;8.80;99.90;;;;;;5020638;28;20298;-78
2022/11/20 09:00:25;;;;;;;0.93;0.60;;;8.80;99.90;;;;;;5024278;28;20459;-77
2022/11/20 09:02:52;;;;;;;0.88;0.82;;;8.80;99.90;;;;;;5024290;28;20131;-77
2022/11/20 09:05:19;;;;;;;1.90;1.00;;;8.80;99.90;;;;;;5023343;28;20060;-77
2022/11/20 09:07:46;;;;;;;1.15;1.00;;;8.70;99.90;;;;;;5063326;28;20070;-77
2022/11/20 09:10:12;;;;;;;2.40;1.20;;;8.70;99.90;;;;;;5044434;28;20610;-79
2022/11/20 09:12:51;;;;;;;1.25;0.98;;;8.70;99.90;;;;;;5063984;28;20052;-78
2022/11/20 09:15:18;;;;;;;2.72;1.40;;;8.70;99.90;;;;;;5061994;28;20064;-76
2022/11/20 09:17:52;;;;;;;1.80;1.10;;;8.70;99.90;;;;;;5034941;28;20059;-79
2022/11/20 09:20:19;;;;;;;;;;;8.70;99.90;;;;;;5024103;28;20048;-79
2022/11/20 09:22:45;;;;;;;1.92;0.90;;;8.80;99.90;;;;;;5044620;28;20151;-79
2022/11/20 09:25:12;;;;;;;1.00;0.90;;;8.80;99.90;;;;;;5042305;28;20151;-80
2022/11/20 09:27:41;;;;;;;1.40;0.90;;;8.90;99.90;;;;;;5041332;28;20055;-77
2022/11/20 09:30:09;;;;;;;1.23;1.13;;;9.00;99.90;;;;;;5042138;28;20071;-77
2022/11/20 09:32:38;;;;;;;1.45;1.10;;;8.90;99.90;;;;;;5030421;28;20592;-77
2022/11/20 09:35:05;;;;;;;1.30;1.10;;;8.90;99.90;;;;;;5035064;28;20397;-76
2022/11/20 09:37:32;;;;;;;1.85;1.50;;;8.80;99.90;;;;;;5025744;28;20044;-77
2022/11/20 09:39:59;;;;;;;1.58;1.20;;;8.70;99.90;;;;;;5040310;28;20139;-78
2022/11/20 09:42:53;;;;;;;1.65;1.15;;;8.70;99.90;;;;;;5024344;28;20048;-75
2022/11/20 09:45:42;;;;;;;1.77;1.25;;;8.70;99.90;;;;;;5053803;28;20158;-76
2022/11/20 09:48:13;;;;;;;1.90;1.58;;;8.80;99.90;;;;;;5041267;28;20443;-76
2022/11/20 09:50:56;;;;;;;2.30;1.40;;;8.80;99.90;;;;;;5039680;28;20539;-77
2022/11/20 09:53:29;;;;;;;;;;;8.80;99.90;;;;;;5025221;28;20059;-76
2022/11/20 09:55:56;;;;;;;2.50;1.45;;;8.80;99.90;;;;;;5059006;28;19924;-76
2022/11/20 09:58:29;;;;;;;4.10;2.55;;;8.80;99.90;;;;;;5024746;28;20124;-76
2022/11/20 10:00:58;;;;;;;4.70;2.40;;;8.70;99.90;;;;;;5040910;28;20076;-76
2022/11/20 10:03:40;;;;;;;5.13;2.30;;;8.60;99.90;;;;;;5022396;28;20052;-76
2022/11/20 10:06:09;;;;;;;1.92;1.73;;;8.60;99.90;;;;;;5039859;28;20049;-77
2022/11/20 10:08:41;;;;;;;3.40;2.28;;;8.60;99.90;;;;;;5021285;28;20511;-77
2022/11/20 10:11:48;;;;;;;2.33;1.37;;;8.70;99.90;;;;;;5020116;28;20056;-76
2022/11/20 10:14:29;;;;;;;1.83;1.10;;;8.70;99.90;;;;;;4943517;28;20078;-75
2022/11/20 10:17:21;;;;;;;3.28;1.80;;;8.60;99.90;;;;;;5042484;28;20048;-78
2022/11/20 10:19:51;;;;;;;2.70;1.55;;;8.60;99.90;;;;;;5036239;28;20049;-77
2022/11/20 10:22:35;;;;;;;2.47;1.50;;;8.60;99.90;;;;;;5053268;28;20056;-77
2022/11/20 10:25:15;;;;;;;2.92;1.75;;;8.60;99.90;;;;;;5010926;28;20052;-77
2022/11/20 10:28:06;;;;;;;4.03;2.05;;;8.60;99.90;;;;;;5022922;28;20136;-77
2022/11/20 10:30:37;;;;;;;4.32;2.40;;;8.60;99.90;;;;;;5054646;28;20195;-77
2022/11/20 10:33:08;;;;;;;3.13;1.70;;;8.60;99.90;;;;;;5008870;28;20123;-77
2022/11/20 10:35:39;;;;;;;2.95;1.98;;;8.70;99.90;;;;;;5025964;28;20136;-77
2022/11/20 10:38:28;;;;;;;5.10;2.00;;;8.70;99.90;;;;;;5026172;28;20044;-78
2022/11/20 10:41:24;;;;;;;3.05;1.60;;;8.70;99.90;;;;;;5008646;28;20083;-78
2022/11/20 10:43:44;;;;;;;3.80;1.58;;;8.80;99.90;;;;;;5034952;28;20508;-76
2022/11/20 10:46:16;;;;;;;2.60;1.50;;;8.80;99.90;;;;;;4989491;28;20091;-76
2022/11/20 10:48:43;;;;;;;2.75;1.92;;;8.90;99.90;;;;;;5003058;28;20058;-76
2022/11/20 10:51:10;;;;;;;7.47;2.33;;;8.90;99.90;;;;;;5039809;28;20051;-76
2022/11/20 10:54:08;;;;;;;3.03;1.80;;;9.00;99.90;;;;;;5050050;28;20104;-75
2022/11/20 10:56:40;;;;;;;4.20;1.83;;;9.00;99.90;;;;;;5047890;28;20335;-77
2022/11/20 10:59:44;;;;;;;3.10;1.45;;;9.10;99.90;;;;;;5043213;28;20044;-77
2022/11/20 11:02:22;;;;;;;2.80;1.60;;;9.10;99.90;;;;;;5052252;28;20537;-78
2022/11/20 11:04:53;;;;;;;2.45;1.30;;;9.10;99.90;;;;;;5017010;28;20073;-77
2022/11/20 11:07:27;;;;;;;5.53;1.98;;;9.20;99.90;;;;;;5040204;28;20158;-76
2022/11/20 11:09:55;;;;;;;5.22;1.90;;;9.20;99.90;;;;;;5056739;28;20545;-77
2022/11/20 11:12:24;;;;;;;4.80;1.75;;;9.30;99.90;;;;;;5020860;28;20056;-77
2022/11/20 11:14:52;;;;;;;5.15;1.63;;;9.30;99.90;;;;;;5057257;28;20088;-78
2022/11/20 11:17:29;;;;;;;4.65;1.92;;;9.40;99.90;;;;;;5020395;28;20049;-77
2022/11/20 11:20:07;;;;;;;3.53;1.63;;;9.40;99.90;;;;;;5058590;28;20509;-77
2022/11/20 11:22:42;;;;;;;4.97;1.63;;;9.50;99.90;;;;;;5059440;28;20234;-77
2022/11/20 11:25:21;;;;;;;6.28;2.60;;;9.60;99.90;;;;;;5023275;28;20496;-77
2022/11/20 11:27:49;;;;;;;6.30;2.55;;;9.60;99.90;;;;;;5039886;28;20056;-78
2022/11/20 11:30:17;;;;;;;6.70;1.80;;;9.70;99.90;;;;;;5038966;28;20140;-79
2022/11/20 11:32:44;;;;;;;3.38;1.52;;;9.60;99.90;;;;;;5021521;28;20058;-79
2022/11/20 11:35:45;;;;;;;6.38;1.90;;;9.70;99.90;;;;;;5025547;28;20057;-79
2022/11/20 11:38:19;;;;;;;7.32;2.50;;;9.70;99.90;;;;;;5015928;28;20216;-77
2022/11/20 11:40:46;;;;;;;3.72;1.90;;;9.70;99.90;;;;;;5018559;28;20342;-79
2022/11/20 11:46:22;;;;;;;4.95;1.90;;;9.80;99.90;;;;;;5016187;28;20109;-79
2022/11/20 11:49:13;;;;;;;3.47;1.60;;;10.00;99.90;;;;;;5042687;28;20052;-79
2022/11/20 11:52:28;;;;;;;3.95;2.17;;;10.10;99.90;;;;;;5010016;28;20083;-77
2022/11/20 11:54:59;;;;;;;9.13;2.85;;;10.20;99.90;;;;;;5030877;28;20369;-78
2022/11/20 11:57:39;;;;;;;6.72;2.78;;;10.30;99.90;;;;;;5023719;28;20218;-77
2022/11/20 12:00:14;;;;;;;7.82;3.13;;;10.50;99.90;;;;;;5021349;28;20094;-78
2022/11/20 12:02:50;;;;;;;6.90;2.28;;;10.60;99.90;;;;;;5030636;28;20520;-75
2022/11/20 12:05:37;;;;;;;7.07;2.53;;;10.70;99.90;;;;;;5039895;28;20137;-78
2022/11/20 12:08:25;;;;;;;5.53;1.95;;;10.80;99.90;;;;;;5040576;28;20071;-77
2022/11/20 12:10:57;;;;;;;5.82;2.80;;;11.00;99.90;;;;;;5038041;28;20048;-78
2022/11/20 12:13:33;;;;;;;5.40;2.10;;;11.10;99.90;;;;;;5058407;28;20288;-77
2022/11/20 12:16:01;;;;;;;5.70;2.10;;;11.20;99.90;;;;;;5058955;28;20058;-78
2022/11/20 12:18:28;;;;;;;3.10;1.48;;;11.40;99.90;;;;;;5023930;28;20464;-76
2022/11/20 12:21:04;;;;;;;4.07;2.10;;;11.60;99.90;;;;;;5040022;28;20044;-78
2022/11/20 12:23:55;;;;;;;8.18;2.97;;;11.80;99.90;;;;;;5058099;28;20068;-78
2022/11/20 12:26:53;;;;;;;4.55;2.63;;;11.90;99.90;;;;;;5056486;28;20139;-76
2022/11/20 12:29:58;;;;;;;7.65;2.75;;;12.10;99.90;;;;;;5036231;28;20060;-77
2022/11/20 12:32:57;;;;;;;10.27;3.22;;;12.10;99.90;;;;;;5028621;28;20164;-76
2022/11/20 12:35:48;;;;;;;7.28;2.53;;;11.90;99.90;;;;;;5036285;28;20052;-77
2022/11/20 12:38:33;;;;;;;6.72;2.55;;;11.90;99.90;;;;;;5035950;28;20128;-76
2022/11/20 12:47:51;;;;;;;7.13;2.83;;;12.30;99.90;;;;;;5026181;28;20106;-77
2022/11/20 12:50:27;;;;;;;7.60;2.90;;;12.40;99.90;;;;;;5037017;28;20429;-77
2022/11/20 12:52:57;;;;;;;5.22;2.17;;;12.50;99.90;;;;;;5040349;28;20503;-77
2022/11/20 12:55:28;;;;;;;6.55;2.60;;;12.50;99.90;;;;;;5019753;28;20049;-78
2022/11/20 12:58:00;;;;;;;12.18;3.42;;;12.60;99.90;;;;;;5004218;28;20158;-77
2022/11/20 13:00:28;;;;;;;6.53;2.72;;;12.60;99.90;;;;;;5029359;28;20088;-77
2022/11/20 13:03:19;;;;;;;6.25;2.90;;;12.70;99.90;;;;;;5010146;28;20052;-77
2022/11/20 13:06:04;;;;;;;6.20;2.55;;;12.70;99.90;;;;;;5020304;28;20123;-77
2022/11/20 13:08:39;;;;;;;6.15;2.40;;;12.90;99.90;;;;;;5023591;28;20499;-77
2022/11/20 13:11:24;;;;;;;8.05;2.55;;;13.10;99.90;;;;;;5039207;28;20070;-77
2022/11/20 13:14:12;;;;;;;6.07;2.38;;;13.10;99.90;;;;;;5059261;28;20067;-77
2022/11/20 13:16:57;;;;;;;8.02;2.85;;;13.30;99.90;;;;;;5039293;28;20054;-77
2022/11/20 13:19:31;;;;;;;6.63;2.67;;;13.20;99.90;;;;;;5039076;28;20191;-77
2022/11/20 13:21:58;;;;;;;4.72;2.50;;;13.30;99.90;;;;;;5051385;28;20081;-77
2022/11/20 13:24:27;;;;;;;5.25;2.00;;;13.40;99.90;;;;;;5040175;28;20048;-77
2022/11/20 13:27:23;;;;;;;7.18;2.75;;;13.50;99.90;;;;;;5038559;28;20524;-77
2022/11/20 13:30:12;;;;;;;7.82;2.88;;;13.60;99.90;;;;;;5010534;28;20052;-77
2022/11/20 13:33:14;;;;;;;7.70;3.30;;;13.40;99.90;;;;;;5025704;28;20469;-77